sensor_id;sensor_type;location;lat;lon;timestamp;pressure;altitude;pressure_sealevel;temperature;humidity
9822;BME280;4950;46.042;14.472;2022-12-04T00:01:10;98309.19;;;5.13;94.13
9822;BME280;4950;46.042;14.472;2022-12-04T00:03:39;98318.28;;;5.18;93.27
9822;BME280;4950;46.042;14.472;2022-12-04T00:06:07;98322.31;;;5.10;93.56
9822;BME280;4950;46.042;14.472;2022-12-04T00:08:34;98329.72;;;5.04;93.94
9822;BME280;4950;46.042;14.472;2022-12-04T00:11:03;98329.72;;;5.04;94.49
9822;BME280;4950;46.042;14.472;2022-12-04T00:13:30;98323.06;;;5.01;94.27
9822;BME280;4950;46.042;14.472;2022-12-04T00:15:56;98325.06;;;4.98;94.38
9822;BME280;4950;46.042;14.472;2022-12-04T00:18:23;98326.72;;;4.99;94.54
9822;BME280;4950;46.042;14.472;2022-12-04T00:20:51;98315.47;;;5.00;94.42
9822;BME280;4950;46.042;14.472;2022-12-04T00:23:18;98308.88;;;5.07;94.36
9822;BME280;4950;46.042;14.472;2022-12-04T00:25:44;98318.94;;;5.10;94.15
9822;BME280;4950;46.042;14.472;2022-12-04T00:28:13;98318.09;;;5.09;93.84
9822;BME280;4950;46.042;14.472;2022-12-04T00:30:41;98315.69;;;5.08;93.49
9822;BME280;4950;46.042;14.472;2022-12-04T00:33:08;98321.50;;;5.10;93.93
9822;BME280;4950;46.042;14.472;2022-12-04T00:35:35;98313.47;;;5.03;93.91
9822;BME280;4950;46.042;14.472;2022-12-04T00:38:03;98314.28;;;5.04;94.16
9822;BME280;4950;46.042;14.472;2022-12-04T00:40:30;98308.19;;;5.05;94.53
9822;BME280;4950;46.042;14.472;2022-12-04T00:42:56;98307.41;;;5.04;94.13
9822;BME280;4950;46.042;14.472;2022-12-04T00:45:23;98311.00;;;5.02;94.58
9822;BME280;4950;46.042;14.472;2022-12-04T00:47:50;98313.97;;;4.97;94.20
9822;BME280;4950;46.042;14.472;2022-12-04T00:50:17;98306.81;;;5.01;94.42
9822;BME280;4950;46.042;14.472;2022-12-04T00:52:43;98309.28;;;5.02;94.23
9822;BME280;4950;46.042;14.472;2022-12-04T00:55:11;98302.50;;;5.01;94.26
9822;BME280;4950;46.042;14.472;2022-12-04T00:57:38;98305.34;;;4.98;94.60
9822;BME280;4950;46.042;14.472;2022-12-04T01:00:06;98308.72;;;4.99;94.49
9822;BME280;4950;46.042;14.472;2022-12-04T01:02:33;98302.50;;;5.01;94.27
9822;BME280;4950;46.042;14.472;2022-12-04T01:05:00;98303.44;;;5.00;94.42
9822;BME280;4950;46.042;14.472;2022-12-04T01:07:26;98296.66;;;4.99;94.37
9822;BME280;4950;46.042;14.472;2022-12-04T01:09:56;98283.56;;;5.02;94.21
9822;BME280;4950;46.042;14.472;2022-12-04T01:12:24;98278.00;;;5.07;93.80
9822;BME280;4950;46.042;14.472;2022-12-04T01:14:51;98276.06;;;4.99;94.22
9822;BME280;4950;46.042;14.472;2022-12-04T01:17:18;98283.91;;;4.98;94.72
9822;BME280;4950;46.042;14.472;2022-12-04T01:19:44;98277.44;;;5.03;94.16
9822;BME280;4950;46.042;14.472;2022-12-04T01:22:11;98268.38;;;4.99;94.06
9822;BME280;4950;46.042;14.472;2022-12-04T01:24:38;98259.72;;;5.00;94.10
9822;BME280;4950;46.042;14.472;2022-12-04T01:27:04;98266.59;;;5.00;93.91
9822;BME280;4950;46.042;14.472;2022-12-04T01:29:32;98271.75;;;5.00;93.86
9822;BME280;4950;46.042;14.472;2022-12-04T01:31:59;98264.03;;;5.00;94.11
9822;BME280;4950;46.042;14.472;2022-12-04T01:34:26;98255.94;;;5.04;93.47
9822;BME280;4950;46.042;14.472;2022-12-04T01:36:52;98259.72;;;5.00;93.97
9822;BME280;4950;46.042;14.472;2022-12-04T01:39:19;98255.50;;;4.99;94.33
9822;BME280;4950;46.042;14.472;2022-12-04T01:41:46;98248.06;;;4.96;94.26
9822;BME280;4950;46.042;14.472;2022-12-04T01:44:15;98242.75;;;4.98;94.45
9822;BME280;4950;46.042;14.472;2022-12-04T01:46:45;98256.47;;;4.98;94.46
9822;BME280;4950;46.042;14.472;2022-12-04T01:49:13;98247.34;;;4.94;94.46
9822;BME280;4950;46.042;14.472;2022-12-04T01:51:45;98246.97;;;4.99;94.29
9822;BME280;4950;46.042;14.472;2022-12-04T01:54:16;98251.16;;;5.00;94.37
9822;BME280;4950;46.042;14.472;2022-12-04T01:56:48;98251.31;;;4.98;94.63
9822;BME280;4950;46.042;14.472;2022-12-04T01:59:16;98254.69;;;4.99;94.76
9822;BME280;4950;46.042;14.472;2022-12-04T02:01:51;98251.31;;;4.98;94.50
9822;BME280;4950;46.042;14.472;2022-12-04T02:04:18;98235.03;;;4.98;94.64
9822;BME280;4950;46.042;14.472;2022-12-04T02:06:45;98223.13;;;4.97;94.72
9822;BME280;4950;46.042;14.472;2022-12-04T02:09:12;98220.84;;;5.03;94.44
9822;BME280;4950;46.042;14.472;2022-12-04T02:11:43;98226.56;;;5.07;94.38
9822;BME280;4950;46.042;14.472;2022-12-04T02:14:20;98221.28;;;5.08;94.01
9822;BME280;4950;46.042;14.472;2022-12-04T02:16:58;98222.63;;;5.03;94.14
9822;BME280;4950;46.042;14.472;2022-12-04T02:19:51;98223.00;;;4.98;94.57
9822;BME280;4950;46.042;14.472;2022-12-04T02:22:29;98218.81;;;4.97;94.52
9822;BME280;4950;46.042;14.472;2022-12-04T02:25:06;98223.94;;;4.97;94.73
9822;BME280;4950;46.042;14.472;2022-12-04T02:27:53;98224.91;;;4.96;94.79
9822;BME280;4950;46.042;14.472;2022-12-04T02:30:22;98213.66;;;4.97;94.64
9822;BME280;4950;46.042;14.472;2022-12-04T02:32:57;98207.06;;;5.04;94.25
9822;BME280;4950;46.042;14.472;2022-12-04T02:35:30;98200.03;;;5.06;94.12
9822;BME280;4950;46.042;14.472;2022-12-04T02:38:03;98206.63;;;4.99;94.41
9822;BME280;4950;46.042;14.472;2022-12-04T02:40:37;98211.34;;;4.94;94.36
9822;BME280;4950;46.042;14.472;2022-12-04T02:43:11;98207.94;;;4.93;94.57
9822;BME280;4950;46.042;14.472;2022-12-04T02:45:43;98199.19;;;4.96;94.79
9822;BME280;4950;46.042;14.472;2022-12-04T02:48:14;98203.50;;;4.95;94.86
9822;BME280;4950;46.042;14.472;2022-12-04T02:50:42;98192.81;;;5.00;94.74
9822;BME280;4950;46.042;14.472;2022-12-04T02:53:13;98192.00;;;5.00;94.96
9822;BME280;4950;46.042;14.472;2022-12-04T02:55:47;98205.00;;;4.98;94.53
9822;BME280;4950;46.042;14.472;2022-12-04T02:58:19;98205.50;;;4.92;94.52
9822;BME280;4950;46.042;14.472;2022-12-04T03:00:49;98220.13;;;4.91;95.03
9822;BME280;4950;46.042;14.472;2022-12-04T03:03:21;98210.66;;;4.92;95.03
9822;BME280;4950;46.042;14.472;2022-12-04T03:05:57;98201.19;;;4.92;95.42
9822;BME280;4950;46.042;14.472;2022-12-04T03:08:30;98199.31;;;4.94;94.91
9822;BME280;4950;46.042;14.472;2022-12-04T03:10:59;98199.88;;;4.98;94.80
9822;BME280;4950;46.042;14.472;2022-12-04T03:13:33;98195.41;;;5.00;95.04
9822;BME280;4950;46.042;14.472;2022-12-04T03:16:05;98190.25;;;5.00;94.86
9822;BME280;4950;46.042;14.472;2022-12-04T03:18:36;98188.63;;;4.99;95.00
9822;BME280;4950;46.042;14.472;2022-12-04T03:21:08;98189.72;;;5.06;94.57
9822;BME280;4950;46.042;14.472;2022-12-04T03:23:41;98179.97;;;5.00;94.20
9822;BME280;4950;46.042;14.472;2022-12-04T03:26:14;98174.81;;;5.00;94.84
9822;BME280;4950;46.042;14.472;2022-12-04T03:28:50;98182.53;;;5.00;94.75
9822;BME280;4950;46.042;14.472;2022-12-04T03:31:23;98170.88;;;4.96;94.99
9822;BME280;4950;46.042;14.472;2022-12-04T03:33:54;98167.22;;;4.99;95.04
9822;BME280;4950;46.042;14.472;2022-12-04T03:36:26;98163.44;;;5.03;94.67
9822;BME280;4950;46.042;14.472;2022-12-04T03:38:57;98173.97;;;5.00;94.97
9822;BME280;4950;46.042;14.472;2022-12-04T03:41:30;98174.38;;;4.95;94.98
9822;BME280;4950;46.042;14.472;2022-12-04T03:44:04;98163.97;;;4.97;94.89
9822;BME280;4950;46.042;14.472;2022-12-04T03:46:38;98171.16;;;5.03;94.96
9822;BME280;4950;46.042;14.472;2022-12-04T03:49:11;98180.91;;;5.09;94.69
9822;BME280;4950;46.042;14.472;2022-12-04T03:51:44;98178.75;;;5.04;94.54
9822;BME280;4950;46.042;14.472;2022-12-04T03:54:16;98176.84;;;4.97;94.46
9822;BME280;4950;46.042;14.472;2022-12-04T03:56:47;98172.22;;;4.90;94.86
9822;BME280;4950;46.042;14.472;2022-12-04T03:59:21;98176.41;;;4.91;95.32
9822;BME280;4950;46.042;14.472;2022-12-04T04:01:50;98169.50;;;4.92;95.30
9822;BME280;4950;46.042;14.472;2022-12-04T04:04:20;98170.44;;;4.91;95.29
9822;BME280;4950;46.042;14.472;2022-12-04T04:06:52;98162.84;;;4.89;95.22
9822;BME280;4950;46.042;14.472;2022-12-04T04:09:23;98147.19;;;4.92;94.96
9822;BME280;4950;46.042;14.472;2022-12-04T04:11:54;98150.31;;;4.96;95.16
9822;BME280;4950;46.042;14.472;2022-12-04T04:14:29;98146.13;;;5.05;94.39
9822;BME280;4950;46.042;14.472;2022-12-04T04:17:17;98143.53;;;5.05;94.26
9822;BME280;4950;46.042;14.472;2022-12-04T04:20:05;98149.78;;;5.02;93.84
9822;BME280;4950;46.042;14.472;2022-12-04T04:22:51;98165.34;;;5.01;94.08
9822;BME280;4950;46.042;14.472;2022-12-04T04:25:40;98163.16;;;4.96;94.17
9822;BME280;4950;46.042;14.472;2022-12-04T04:28:26;98169.66;;;4.90;94.42
9822;BME280;4950;46.042;14.472;2022-12-04T04:30:58;98161.78;;;4.92;94.83
9822;BME280;4950;46.042;14.472;2022-12-04T04:33:27;98161.94;;;4.90;94.53
9822;BME280;4950;46.042;14.472;2022-12-04T04:36:00;98154.50;;;4.97;94.51
9822;BME280;4950;46.042;14.472;2022-12-04T04:38:36;98159.50;;;4.99;94.17
9822;BME280;4950;46.042;14.472;2022-12-04T04:41:09;98176.97;;;4.95;94.52
9822;BME280;4950;46.042;14.472;2022-12-04T04:43:41;98184.44;;;4.98;94.58
9822;BME280;4950;46.042;14.472;2022-12-04T04:46:18;98171.00;;;4.94;94.63
9822;BME280;4950;46.042;14.472;2022-12-04T04:48:48;98184.44;;;4.98;94.62
9822;BME280;4950;46.042;14.472;2022-12-04T04:51:18;98179.13;;;5.00;94.74
9822;BME280;4950;46.042;14.472;2022-12-04T04:53:48;98181.69;;;5.00;94.33
9822;BME280;4950;46.042;14.472;2022-12-04T04:56:17;98180.91;;;4.99;94.10
9822;BME280;4950;46.042;14.472;2022-12-04T04:58:44;98176.72;;;4.98;93.92
9822;BME280;4950;46.042;14.472;2022-12-04T05:01:14;98185.34;;;4.97;94.39
9822;BME280;4950;46.042;14.472;2022-12-04T05:03:41;98167.91;;;5.01;94.10
9822;BME280;4950;46.042;14.472;2022-12-04T05:06:08;98167.78;;;5.02;94.15
9822;BME280;4950;46.042;14.472;2022-12-04T05:08:36;98171.16;;;5.03;94.06
9822;BME280;4950;46.042;14.472;2022-12-04T05:11:03;98178.44;;;4.98;94.32
9822;BME280;4950;46.042;14.472;2022-12-04T05:13:31;98171.81;;;4.95;94.19
9822;BME280;4950;46.042;14.472;2022-12-04T05:16:00;98171.13;;;4.93;94.57
9822;BME280;4950;46.042;14.472;2022-12-04T05:18:28;98165.75;;;4.96;94.59
9822;BME280;4950;46.042;14.472;2022-12-04T05:20:55;98163.97;;;4.97;94.86
9822;BME280;4950;46.042;14.472;2022-12-04T05:23:21;98169.13;;;4.97;94.42
9822;BME280;4950;46.042;14.472;2022-12-04T05:25:48;98168.31;;;4.96;94.48
9822;BME280;4950;46.042;14.472;2022-12-04T05:28:14;98176.16;;;4.94;94.31
9822;BME280;4950;46.042;14.472;2022-12-04T05:30:41;98174.38;;;4.95;94.71
9822;BME280;4950;46.042;14.472;2022-12-04T05:33:09;98177.09;;;4.93;94.60
9822;BME280;4950;46.042;14.472;2022-12-04T05:35:37;98178.44;;;4.98;94.49
9822;BME280;4950;46.042;14.472;2022-12-04T05:38:03;98178.59;;;4.96;94.79
9822;BME280;4950;46.042;14.472;2022-12-04T05:40:30;98176.03;;;4.96;94.66
9822;BME280;4950;46.042;14.472;2022-12-04T05:42:56;98170.72;;;4.98;94.54
9822;BME280;4950;46.042;14.472;2022-12-04T05:45:23;98170.34;;;5.02;93.78
9822;BME280;4950;46.042;14.472;2022-12-04T05:47:50;98161.81;;;5.02;94.46
9822;BME280;4950;46.042;14.472;2022-12-04T05:50:16;98161.97;;;5.10;94.24
9822;BME280;4950;46.042;14.472;2022-12-04T05:52:45;98150.56;;;5.03;94.08
9822;BME280;4950;46.042;14.472;2022-12-04T05:55:11;98159.09;;;5.03;93.82
9822;BME280;4950;46.042;14.472;2022-12-04T05:57:38;98152.34;;;5.02;94.35
9822;BME280;4950;46.042;14.472;2022-12-04T06:00:06;98158.41;;;5.01;94.52
9822;BME280;4950;46.042;14.472;2022-12-04T06:02:33;98163.44;;;5.03;94.69
9822;BME280;4950;46.042;14.472;2022-12-04T06:04:59;98160.88;;;5.03;94.66
9822;BME280;4950;46.042;14.472;2022-12-04T06:07:26;98165.34;;;5.01;94.53
9822;BME280;4950;46.042;14.472;2022-12-04T06:09:55;98162.34;;;5.05;94.33
9822;BME280;4950;46.042;14.472;2022-12-04T06:12:21;98164.94;;;5.05;94.29
9822;BME280;4950;46.042;14.472;2022-12-04T06:14:48;98159.91;;;5.04;94.56
9822;BME280;4950;46.042;14.472;2022-12-04T06:17:15;98153.03;;;5.04;94.55
9822;BME280;4950;46.042;14.472;2022-12-04T06:19:41;98152.06;;;5.05;94.40
9822;BME280;4950;46.042;14.472;2022-12-04T06:22:08;98150.56;;;5.03;93.92
9822;BME280;4950;46.042;14.472;2022-12-04T06:24:35;98155.84;;;5.01;94.50
9822;BME280;4950;46.042;14.472;2022-12-04T06:27:03;98153.97;;;5.03;94.71
9822;BME280;4950;46.042;14.472;2022-12-04T06:29:29;98151.94;;;5.07;94.73
9822;BME280;4950;46.042;14.472;2022-12-04T06:31:56;98143.53;;;5.05;94.33
9822;BME280;4950;46.042;14.472;2022-12-04T06:34:23;98153.97;;;5.03;94.51
9822;BME280;4950;46.042;14.472;2022-12-04T06:36:49;98150.56;;;5.03;94.62
9822;BME280;4950;46.042;14.472;2022-12-04T06:39:16;98150.44;;;5.04;94.59
9822;BME280;4950;46.042;14.472;2022-12-04T06:41:43;98155.72;;;5.03;94.86
9822;BME280;4950;46.042;14.472;2022-12-04T06:44:11;98154.25;;;5.00;94.73
9822;BME280;4950;46.042;14.472;2022-12-04T06:46:38;98163.84;;;4.98;95.05
9822;BME280;4950;46.042;14.472;2022-12-04T06:49:05;98167.47;;;4.95;95.06
9822;BME280;4950;46.042;14.472;2022-12-04T06:51:34;98167.78;;;5.02;94.76
9822;BME280;4950;46.042;14.472;2022-12-04T06:54:01;98170.19;;;5.04;94.86
9822;BME280;4950;46.042;14.472;2022-12-04T06:56:31;98166.81;;;5.03;94.74
9822;BME280;4950;46.042;14.472;2022-12-04T06:58:59;98158.03;;;5.06;94.58
9822;BME280;4950;46.042;14.472;2022-12-04T07:01:29;98160.75;;;5.14;94.31
9822;BME280;4950;46.042;14.472;2022-12-04T07:03:57;98156.97;;;5.08;94.29
9822;BME280;4950;46.042;14.472;2022-12-04T07:06:27;98164.00;;;5.06;94.58
9822;BME280;4950;46.042;14.472;2022-12-04T07:08:57;98166.13;;;5.01;94.75
9822;BME280;4950;46.042;14.472;2022-12-04T07:11:24;98172.38;;;4.99;95.19
9822;BME280;4950;46.042;14.472;2022-12-04T07:13:51;98170.88;;;4.96;95.52
9822;BME280;4950;46.042;14.472;2022-12-04T07:16:19;98164.22;;;4.93;95.57
9822;BME280;4950;46.042;14.472;2022-12-04T07:18:48;98159.88;;;4.94;95.54
9822;BME280;4950;46.042;14.472;2022-12-04T07:21:20;98170.88;;;4.96;95.34
9822;BME280;4950;46.042;14.472;2022-12-04T07:23:48;98169.91;;;4.97;95.58
9822;BME280;4950;46.042;14.472;2022-12-04T07:26:14;98166.56;;;5.06;95.32
9822;BME280;4950;46.042;14.472;2022-12-04T07:28:41;98172.13;;;5.21;94.65
9822;BME280;4950;46.042;14.472;2022-12-04T07:31:12;98169.16;;;5.16;94.19
9822;BME280;4950;46.042;14.472;2022-12-04T07:33:39;98171.75;;;5.16;94.70
9822;BME280;4950;46.042;14.472;2022-12-04T07:36:11;98174.16;;;5.08;94.87
9822;BME280;4950;46.042;14.472;2022-12-04T07:38:38;98177.41;;;5.10;94.98
9822;BME280;4950;46.042;14.472;2022-12-04T07:41:05;98179.31;;;5.08;95.21
9822;BME280;4950;46.042;14.472;2022-12-04T07:43:33;98184.47;;;5.08;95.16
9822;BME280;4950;46.042;14.472;2022-12-04T07:46:04;98185.94;;;5.10;95.25
9822;BME280;4950;46.042;14.472;2022-12-04T07:48:31;98181.47;;;5.12;94.92
9822;BME280;4950;46.042;14.472;2022-12-04T07:51:01;98184.97;;;5.11;95.03
9822;BME280;4950;46.042;14.472;2022-12-04T07:53:30;98191.09;;;5.10;95.16
9822;BME280;4950;46.042;14.472;2022-12-04T07:55:56;98193.66;;;5.10;95.06
9822;BME280;4950;46.042;14.472;2022-12-04T07:58:23;98191.22;;;5.09;95.52
9822;BME280;4950;46.042;14.472;2022-12-04T08:00:50;98192.69;;;5.11;95.29
9822;BME280;4950;46.042;14.472;2022-12-04T08:03:16;98185.94;;;5.10;95.06
9822;BME280;4950;46.042;14.472;2022-12-04T08:05:43;98192.69;;;5.11;94.80
9822;BME280;4950;46.042;14.472;2022-12-04T08:08:09;98188.50;;;5.10;94.86
9822;BME280;4950;46.042;14.472;2022-12-04T08:10:39;98182.69;;;5.08;94.86
9822;BME280;4950;46.042;14.472;2022-12-04T08:13:06;98179.72;;;5.13;95.05
9822;BME280;4950;46.042;14.472;2022-12-04T08:15:33;98184.47;;;5.18;94.63
9822;BME280;4950;46.042;14.472;2022-12-04T08:18:00;98174.31;;;5.16;94.77
9822;BME280;4950;46.042;14.472;2022-12-04T08:20:26;98179.34;;;5.18;94.46
9822;BME280;4950;46.042;14.472;2022-12-04T08:22:53;98181.22;;;5.16;94.46
9822;BME280;4950;46.042;14.472;2022-12-04T08:25:20;98187.44;;;5.13;94.63
9822;BME280;4950;46.042;14.472;2022-12-04T08:27:48;98181.06;;;5.17;94.83
9822;BME280;4950;46.042;14.472;2022-12-04T08:30:15;98177.81;;;5.15;94.70
9822;BME280;4950;46.042;14.472;2022-12-04T08:32:42;98177.13;;;5.13;94.78
9822;BME280;4950;46.042;14.472;2022-12-04T08:35:08;98171.88;;;5.14;94.85
9822;BME280;4950;46.042;14.472;2022-12-04T08:37:35;98178.25;;;5.20;94.92
9822;BME280;4950;46.042;14.472;2022-12-04T08:40:02;98180.56;;;5.33;94.67
9822;BME280;4950;46.042;14.472;2022-12-04T08:42:31;98184.91;;;5.32;94.18
9822;BME280;4950;46.042;14.472;2022-12-04T08:44:59;98200.06;;;5.26;93.90
9822;BME280;4950;46.042;14.472;2022-12-04T08:47:26;98200.19;;;5.24;94.11
9822;BME280;4950;46.042;14.472;2022-12-04T08:49:53;98203.56;;;5.25;94.26
9822;BME280;4950;46.042;14.472;2022-12-04T08:52:19;98194.91;;;5.26;94.29
9822;BME280;4950;46.042;14.472;2022-12-04T08:54:46;98198.44;;;5.25;94.34
9822;BME280;4950;46.042;14.472;2022-12-04T08:57:15;98194.38;;;5.32;93.40
9822;BME280;4950;46.042;14.472;2022-12-04T08:59:42;98194.63;;;5.29;93.43
9822;BME280;4950;46.042;14.472;2022-12-04T09:02:10;98198.97;;;5.28;93.31
9822;BME280;4950;46.042;14.472;2022-12-04T09:04:37;98211.72;;;5.30;93.40
9822;BME280;4950;46.042;14.472;2022-12-04T09:07:04;98216.06;;;5.29;93.11
9822;BME280;4950;46.042;14.472;2022-12-04T09:09:30;98213.19;;;5.23;93.56
9822;BME280;4950;46.042;14.472;2022-12-04T09:11:57;98209.38;;;5.17;93.92
9822;BME280;4950;46.042;14.472;2022-12-04T09:14:24;98208.44;;;5.18;94.33
9822;BME280;4950;46.042;14.472;2022-12-04T09:16:51;98211.94;;;5.17;94.35
9822;BME280;4950;46.042;14.472;2022-12-04T09:19:19;98220.47;;;5.08;94.51
9822;BME280;4950;46.042;14.472;2022-12-04T09:21:46;98214.78;;;5.04;95.29
9822;BME280;4950;46.042;14.472;2022-12-04T09:24:13;98222.38;;;5.06;95.21
9822;BME280;4950;46.042;14.472;2022-12-04T09:26:40;98222.22;;;5.07;95.18
9822;BME280;4950;46.042;14.472;2022-12-04T09:29:07;98219.50;;;5.09;95.20
9822;BME280;4950;46.042;14.472;2022-12-04T09:31:35;98219.94;;;5.14;94.78
9822;BME280;4950;46.042;14.472;2022-12-04T09:34:02;98218.19;;;5.14;95.02
9822;BME280;4950;46.042;14.472;2022-12-04T09:36:30;98221.44;;;5.17;95.12
9822;BME280;4950;46.042;14.472;2022-12-04T09:38:57;98208.16;;;5.21;94.76
9822;BME280;4950;46.042;14.472;2022-12-04T09:41:47;98196.13;;;5.22;94.61
9822;BME280;4950;46.042;14.472;2022-12-04T09:44:17;98187.72;;;5.20;94.71
9822;BME280;4950;46.042;14.472;2022-12-04T09:46:50;98196.81;;;5.24;94.90
9822;BME280;4950;46.042;14.472;2022-12-04T09:49:21;98196.94;;;5.22;94.93
9822;BME280;4950;46.042;14.472;2022-12-04T09:51:51;98194.78;;;5.27;95.06
9822;BME280;4950;46.042;14.472;2022-12-04T09:54:22;98192.06;;;5.29;94.96
9822;BME280;4950;46.042;14.472;2022-12-04T09:56:54;98192.75;;;5.31;95.27
9822;BME280;4950;46.042;14.472;2022-12-04T09:59:25;98187.88;;;5.28;95.26
9822;BME280;4950;46.042;14.472;2022-12-04T10:01:57;98191.53;;;5.25;95.65
9822;BME280;4950;46.042;14.472;2022-12-04T10:04:25;98192.63;;;5.32;95.90
9822;BME280;4950;46.042;14.472;2022-12-04T10:07:00;98187.06;;;5.27;96.13
9822;BME280;4950;46.042;14.472;2022-12-04T10:09:35;98186.09;;;5.28;96.20
9822;BME280;4950;46.042;14.472;2022-12-04T10:12:13;98195.59;;;5.28;96.14
9822;BME280;4950;46.042;14.472;2022-12-04T10:14:51;98196.16;;;5.31;96.50
9822;BME280;4950;46.042;14.472;2022-12-04T10:17:35;98190.03;;;5.32;96.41
9822;BME280;4950;46.042;14.472;2022-12-04T10:20:16;98189.25;;;5.32;96.59
9822;BME280;4950;46.042;14.472;2022-12-04T10:22:52;98187.47;;;5.32;96.14
9822;BME280;4950;46.042;14.472;2022-12-04T10:25:22;98189.66;;;5.37;96.56
9822;BME280;4950;46.042;14.472;2022-12-04T10:27:52;98186.25;;;5.37;96.07
9822;BME280;4950;46.042;14.472;2022-12-04T10:30:23;98179.38;;;5.37;96.60
9822;BME280;4950;46.042;14.472;2022-12-04T10:32:56;98171.34;;;5.40;96.32
9822;BME280;4950;46.042;14.472;2022-12-04T10:35:26;98173.94;;;5.40;96.68
9822;BME280;4950;46.042;14.472;2022-12-04T10:37:57;98165.78;;;5.45;96.44
9822;BME280;4950;46.042;14.472;2022-12-04T10:40:30;98157.56;;;5.41;96.70
9822;BME280;4950;46.042;14.472;2022-12-04T10:43:03;98160.13;;;5.41;96.75
9822;BME280;4950;46.042;14.472;2022-12-04T10:45:31;98165.13;;;5.43;96.87
9822;BME280;4950;46.042;14.472;2022-12-04T10:47:58;98165.13;;;5.43;96.67
9822;BME280;4950;46.042;14.472;2022-12-04T10:50:25;98153.88;;;5.44;96.96
9822;BME280;4950;46.042;14.472;2022-12-04T10:52:51;98157.28;;;5.44;96.67
9822;BME280;4950;46.042;14.472;2022-12-04T10:55:29;98164.72;;;5.47;96.76
9822;BME280;4950;46.042;14.472;2022-12-04T10:57:56;98169.09;;;5.47;96.78
9822;BME280;4950;46.042;14.472;2022-12-04T11:00:28;98162.16;;;5.47;97.00
9822;BME280;4950;46.042;14.472;2022-12-04T11:02:58;98168.00;;;5.49;96.45
9822;BME280;4950;46.042;14.472;2022-12-04T11:05:29;98160.13;;;5.51;96.96
9822;BME280;4950;46.042;14.472;2022-12-04T11:07:58;98159.16;;;5.52;96.64
9822;BME280;4950;46.042;14.472;2022-12-04T11:10:32;98156.47;;;5.53;96.78
9822;BME280;4950;46.042;14.472;2022-12-04T11:13:01;98150.09;;;5.58;96.45
9822;BME280;4950;46.042;14.472;2022-12-04T11:15:29;98151.75;;;5.59;95.89
9822;BME280;4950;46.042;14.472;2022-12-04T11:18:07;98140.75;;;5.66;96.24
9822;BME280;4950;46.042;14.472;2022-12-04T11:20:34;98146.41;;;5.70;94.84
9822;BME280;4950;46.042;14.472;2022-12-04T11:23:01;98132.50;;;5.63;94.80
9822;BME280;4950;46.042;14.472;2022-12-04T11:25:34;98127.19;;;5.54;95.10
9822;BME280;4950;46.042;14.472;2022-12-04T11:28:03;98124.75;;;5.53;95.38
9822;BME280;4950;46.042;14.472;2022-12-04T11:30:32;98128.00;;;5.55;95.85
9822;BME280;4950;46.042;14.472;2022-12-04T11:33:01;98128.56;;;5.59;95.82
9822;BME280;4950;46.042;14.472;2022-12-04T11:35:29;98123.41;;;5.59;95.88
9822;BME280;4950;46.042;14.472;2022-12-04T11:38:01;98128.56;;;5.59;95.44
9822;BME280;4950;46.042;14.472;2022-12-04T11:40:30;98130.59;;;5.65;95.17
9822;BME280;4950;46.042;14.472;2022-12-04T11:43:03;98121.34;;;5.62;95.40
9822;BME280;4950;46.042;14.472;2022-12-04T11:45:30;98115.00;;;5.57;95.18
9822;BME280;4950;46.042;14.472;2022-12-04T11:47:59;98120.97;;;5.57;95.61
9822;BME280;4950;46.042;14.472;2022-12-04T11:50:32;98124.75;;;5.63;95.57
9822;BME280;4950;46.042;14.472;2022-12-04T11:53:11;98125.31;;;5.66;95.41
9822;BME280;4950;46.042;14.472;2022-12-04T11:55:49;98132.59;;;5.71;94.74
9822;BME280;4950;46.042;14.472;2022-12-04T11:58:32;98121.91;;;5.66;94.88
9822;BME280;4950;46.042;14.472;2022-12-04T12:01:15;98119.44;;;5.64;95.36
9822;BME280;4950;46.042;14.472;2022-12-04T12:03:58;98117.16;;;5.61;95.47
9822;BME280;4950;46.042;14.472;2022-12-04T12:06:34;98116.88;;;5.64;95.47
9822;BME280;4950;46.042;14.472;2022-12-04T12:09:16;98101.84;;;5.60;95.41
9822;BME280;4950;46.042;14.472;2022-12-04T12:11:50;98106.06;;;5.61;95.75
9822;BME280;4950;46.042;14.472;2022-12-04T12:14:27;98114.72;;;5.60;95.47
9822;BME280;4950;46.042;14.472;2022-12-04T12:17:05;98103.75;;;5.58;95.46
9822;BME280;4950;46.042;14.472;2022-12-04T12:19:52;98117.97;;;5.62;95.70
9822;BME280;4950;46.042;14.472;2022-12-04T12:22:32;98109.56;;;5.60;95.55
9822;BME280;4950;46.042;14.472;2022-12-04T12:25:05;98115.13;;;5.65;95.35
9822;BME280;4950;46.042;14.472;2022-12-04T12:27:49;98106.31;;;5.67;94.79
9822;BME280;4950;46.042;14.472;2022-12-04T12:30:22;98116.06;;;5.73;94.55
9822;BME280;4950;46.042;14.472;2022-12-04T12:32:58;98113.34;;;5.75;94.37
9822;BME280;4950;46.042;14.472;2022-12-04T12:35:29;98116.88;;;5.74;94.54
9822;BME280;4950;46.042;14.472;2022-12-04T12:38:01;98110.09;;;5.73;94.54
9822;BME280;4950;46.042;14.472;2022-12-04T12:40:32;98108.09;;;5.67;95.24
9822;BME280;4950;46.042;14.472;2022-12-04T12:43:05;98103.75;;;5.67;94.91
9822;BME280;4950;46.042;14.472;2022-12-04T12:45:40;98103.59;;;5.69;95.08
9822;BME280;4950;46.042;14.472;2022-12-04T12:48:20;98110.53;;;5.68;95.15
9822;BME280;4950;46.042;14.472;2022-12-04T12:50:51;98100.50;;;5.65;95.46
9822;BME280;4950;46.042;14.472;2022-12-04T12:53:22;98106.31;;;5.67;95.67
9822;BME280;4950;46.042;14.472;2022-12-04T12:55:53;98110.66;;;5.67;94.91
9822;BME280;4950;46.042;14.472;2022-12-04T12:58:25;98120.56;;;5.52;95.95
9822;BME280;4950;46.042;14.472;2022-12-04T13:01:01;98112.28;;;5.39;96.31
9822;BME280;4950;46.042;14.472;2022-12-04T13:03:37;98114.19;;;5.37;95.64
9822;BME280;4950;46.042;14.472;2022-12-04T13:06:11;98121.34;;;5.33;96.52
9822;BME280;4950;46.042;14.472;2022-12-04T13:08:42;98118.53;;;5.36;96.22
9822;BME280;4950;46.042;14.472;2022-12-04T13:11:15;98117.41;;;5.29;96.33
9822;BME280;4950;46.042;14.472;2022-12-04T13:13:45;98116.91;;;5.25;96.79
9822;BME280;4950;46.042;14.472;2022-12-04T13:16:18;98116.06;;;5.25;96.99
9822;BME280;4950;46.042;14.472;2022-12-04T13:18:49;98113.63;;;5.23;97.29
9822;BME280;4950;46.042;14.472;2022-12-04T13:21:28;98118.38;;;5.28;97.09
9822;BME280;4950;46.042;14.472;2022-12-04T13:24:17;98108.66;;;5.31;97.39
9822;BME280;4950;46.042;14.472;2022-12-04T13:26:54;98104.28;;;5.32;97.42
9822;BME280;4950;46.042;14.472;2022-12-04T13:29:39;98114.06;;;5.38;97.35
9822;BME280;4950;46.042;14.472;2022-12-04T13:32:30;98121.50;;;5.31;96.95
9822;BME280;4950;46.042;14.472;2022-12-04T13:35:03;98130.31;;;5.39;97.17
9822;BME280;4950;46.042;14.472;2022-12-04T13:37:42;98122.75;;;5.37;97.21
9822;BME280;4950;46.042;14.472;2022-12-04T13:40:29;98119.47;;;5.35;97.58